createdAt,value
2019-04-07T00:00:19.830Z,33.30
2019-04-07T00:02:47.575Z,36.37
2019-04-07T00:05:15.024Z,37.70
2019-04-07T00:07:42.507Z,37.37
2019-04-07T00:10:09.875Z,36.00
2019-04-07T00:12:37.502Z,35.80
2019-04-07T00:15:05.921Z,35.97
2019-04-07T00:17:33.565Z,35.50
2019-04-07T00:20:01.462Z,35.80
2019-04-07T00:22:28.670Z,32.60
2019-04-07T00:24:55.897Z,34.57
2019-04-07T00:27:23.114Z,33.47
2019-04-07T00:29:50.861Z,38.83
2019-04-07T00:32:18.254Z,37.63
2019-04-07T00:34:45.750Z,39.57
2019-04-07T00:37:12.973Z,40.67
2019-04-07T00:39:40.212Z,38.23
2019-04-07T00:42:08.154Z,37.27
2019-04-07T00:44:35.686Z,39.37
2019-04-07T00:47:03.239Z,38.87
2019-04-07T00:49:31.119Z,44.57
2019-04-07T00:51:59.642Z,45.40
2019-04-07T00:54:27.253Z,43.10
2019-04-07T00:56:54.498Z,46.57
2019-04-07T00:59:21.699Z,46.20
2019-04-07T01:01:49.206Z,41.87
2019-04-07T01:04:16.662Z,48.93
2019-04-07T01:06:43.882Z,41.47
2019-04-07T01:09:11.386Z,44.97
2019-04-07T01:11:38.592Z,40.90
2019-04-07T01:14:06.185Z,44.10
2019-04-07T01:16:33.409Z,42.23
2019-04-07T01:19:00.894Z,44.90
2019-04-07T01:21:28.142Z,45.33
2019-04-07T01:23:55.589Z,48.83
2019-04-07T01:26:23.870Z,46.87
2019-04-07T01:28:54.112Z,45.30
2019-04-07T01:31:20.934Z,49.60
2019-04-07T01:33:48.884Z,44.80
2019-04-07T01:36:16.220Z,49.67
2019-04-07T01:38:43.444Z,49.27
2019-04-07T01:41:12.321Z,47.43
2019-04-07T01:43:59.286Z,46.20
2019-04-07T01:46:40.465Z,44.37
2019-04-07T01:49:15.843Z,52.00
2019-04-07T01:51:45.422Z,49.43
2019-04-07T01:54:20.793Z,49.47
2019-04-07T01:57:02.343Z,49.20
2019-04-07T01:59:44.347Z,49.63
2019-04-07T02:02:13.508Z,43.90
2019-04-07T02:05:00.333Z,46.47
2019-04-07T02:07:29.467Z,49.57
2019-04-07T02:09:58.688Z,47.30
2019-04-07T02:12:35.021Z,55.23
2019-04-07T02:15:13.837Z,48.87
2019-04-07T02:17:54.644Z,52.27
2019-04-07T02:20:43.369Z,45.77
2019-04-07T02:23:12.778Z,43.73
2019-04-07T02:25:41.963Z,43.27
2019-04-07T02:28:27.604Z,42.97
2019-04-07T02:30:59.796Z,40.97
2019-04-07T02:33:35.282Z,44.83
2019-04-07T02:36:16.124Z,48.63
2019-04-07T02:38:34.757Z,46.60
2019-04-07T02:41:04.268Z,46.83
2019-04-07T02:43:36.289Z,45.20
2019-04-07T02:46:17.166Z,50.20
2019-04-07T02:48:51.149Z,48.27
2019-04-07T02:51:26.375Z,50.00
2019-04-07T02:54:01.130Z,57.30
2019-04-07T02:56:42.423Z,61.10
2019-04-07T02:59:14.613Z,61.43
2019-04-07T03:01:43.583Z,59.10
2019-04-07T03:04:19.018Z,64.33
2019-04-07T03:06:54.742Z,68.00
2019-04-07T03:09:36.518Z,63.77
2019-04-07T03:12:05.589Z,56.60
2019-04-07T03:14:53.001Z,61.17
2019-04-07T03:17:21.973Z,57.43
2019-04-07T03:19:50.923Z,59.67
2019-04-07T03:22:23.695Z,62.00
2019-04-07T03:24:53.188Z,52.53
2019-04-07T03:27:22.184Z,62.10
2019-04-07T03:29:54.062Z,53.23
2019-04-07T03:32:36.269Z,54.30
2019-04-07T03:35:14.773Z,56.87
2019-04-07T03:37:59.531Z,62.00
2019-04-07T03:40:38.047Z,66.20
2019-04-07T03:43:22.144Z,58.53
2019-04-07T03:45:57.265Z,58.27
2019-04-07T03:48:35.554Z,58.97
2019-04-07T03:51:20.314Z,61.60
2019-04-07T03:53:56.014Z,61.80
2019-04-07T03:56:41.689Z,56.90
2019-04-07T03:59:26.780Z,52.97
2019-04-07T04:01:59.170Z,64.03
2019-04-07T04:04:28.599Z,63.53
2019-04-07T04:07:22.676Z,64.30
2019-04-07T04:09:47.601Z,60.77
2019-04-07T04:12:19.489Z,69.20
2019-04-07T04:14:51.426Z,62.10
2019-04-07T04:17:19.341Z,63.53
2019-04-07T04:19:46.763Z,58.77
2019-04-07T04:22:14.240Z,63.03
2019-04-07T04:24:42.179Z,66.47
2019-04-07T04:27:11.024Z,62.77
2019-04-07T04:29:38.250Z,60.40
2019-04-07T04:32:05.932Z,54.63
2019-04-07T04:34:33.211Z,62.73
2019-04-07T04:37:00.447Z,64.87
2019-04-07T04:39:27.690Z,61.17
2019-04-07T04:41:55.670Z,61.20
2019-04-07T04:44:24.111Z,65.37
2019-04-07T04:46:52.967Z,65.00
2019-04-07T04:49:21.068Z,67.53
2019-04-07T04:51:50.113Z,60.73
2019-04-07T04:54:17.445Z,64.50
2019-04-07T04:56:44.873Z,68.73
2019-04-07T04:59:12.855Z,62.33
2019-04-07T05:01:40.317Z,69.10
2019-04-07T05:04:07.578Z,61.20
2019-04-07T05:06:35.706Z,60.37
2019-04-07T05:09:05.552Z,55.80
2019-04-07T05:11:32.857Z,49.83
2019-04-07T05:14:00.359Z,54.20
2019-04-07T05:16:27.626Z,50.77
2019-04-07T05:18:54.885Z,47.43
2019-04-07T05:21:22.102Z,46.40
2019-04-07T05:23:49.318Z,47.97
2019-04-07T05:26:16.553Z,43.67
2019-04-07T05:28:43.917Z,44.57
2019-04-07T05:31:11.278Z,49.30
2019-04-07T05:33:38.513Z,44.20
2019-04-07T05:36:05.926Z,42.50
2019-04-07T05:38:33.222Z,42.50
2019-04-07T05:41:00.462Z,50.63
2019-04-07T05:43:27.708Z,43.77
2019-04-07T05:45:55.484Z,47.10
2019-04-07T05:48:22.869Z,41.13
2019-04-07T05:50:50.486Z,38.80
2019-04-07T05:53:17.745Z,43.67
2019-04-07T05:55:44.986Z,47.33
2019-04-07T05:58:15.274Z,41.63
2019-04-07T06:00:45.689Z,40.37
2019-04-07T06:03:11.244Z,41.10
2019-04-07T06:05:38.549Z,36.97
2019-04-07T06:08:20.871Z,41.13
2019-04-07T06:10:34.963Z,38.97
2019-04-07T06:13:03.079Z,35.13
2019-04-07T06:15:30.432Z,34.10
2019-04-07T06:18:01.105Z,39.30
2019-04-07T06:20:26.870Z,41.33
2019-04-07T06:22:54.655Z,32.23
2019-04-07T06:25:22.119Z,33.80
2019-04-07T06:27:50.020Z,36.27
2019-04-07T06:30:18.679Z,37.63
2019-04-07T06:32:46.316Z,33.80
2019-04-07T06:35:14.186Z,30.00
2019-04-07T06:37:41.809Z,31.60
2019-04-07T06:40:10.004Z,32.90
2019-04-07T06:42:37.582Z,35.17
2019-04-07T06:45:09.598Z,32.87
2019-04-07T06:47:53.905Z,30.17
2019-04-07T06:50:47.690Z,30.27
2019-04-07T06:53:15.780Z,30.00
2019-04-07T06:55:51.810Z,29.10
2019-04-07T06:58:20.826Z,29.50
2019-04-07T07:01:06.754Z,30.73
2019-04-07T07:03:53.013Z,31.50
2019-04-07T07:06:25.183Z,30.10
2019-04-07T07:08:57.419Z,35.70
2019-04-07T07:11:44.273Z,30.67
2019-04-07T07:14:34.928Z,28.13
2019-04-07T07:17:18.291Z,28.50
2019-04-07T07:19:46.729Z,30.67
2019-04-07T07:22:16.567Z,28.50
2019-04-07T07:24:46.792Z,32.20
2019-04-07T07:27:13.672Z,30.90
2019-04-07T07:29:40.973Z,27.60
2019-04-07T07:32:08.289Z,26.80
2019-04-07T07:34:35.846Z,32.30
2019-04-07T07:37:03.971Z,29.10
2019-04-07T07:39:31.708Z,29.17
2019-04-07T07:41:59.382Z,31.57
2019-04-07T07:44:26.656Z,28.33
2019-04-07T07:46:53.906Z,27.10
2019-04-07T07:49:21.499Z,27.10
2019-04-07T07:51:48.982Z,28.53
2019-04-07T07:54:17.174Z,27.40
2019-04-07T07:56:48.590Z,29.37
2019-04-07T07:59:13.523Z,29.57
2019-04-07T08:01:44.324Z,27.10
2019-04-07T08:04:10.673Z,28.47
2019-04-07T08:06:40.252Z,30.73
2019-04-07T08:09:13.831Z,31.37
2019-04-07T08:11:37.367Z,27.77
2019-04-07T08:14:05.109Z,25.40
2019-04-07T08:16:32.560Z,23.97
2019-04-07T08:19:00.746Z,30.37
2019-04-07T08:21:29.128Z,28.43
2019-04-07T08:23:56.851Z,27.63
2019-04-07T08:26:25.151Z,23.60
2019-04-07T08:28:53.363Z,24.37
2019-04-07T08:31:21.526Z,25.70
2019-04-07T08:33:50.736Z,24.37
2019-04-07T08:36:18.333Z,22.13
2019-04-07T08:38:45.606Z,24.27
2019-04-07T08:41:15.449Z,19.93
2019-04-07T08:43:42.750Z,20.17
2019-04-07T08:46:10.005Z,18.30
2019-04-07T08:48:37.437Z,20.37
2019-04-07T08:51:04.930Z,21.63
2019-04-07T08:53:32.935Z,19.70
2019-04-07T08:56:00.328Z,16.70
2019-04-07T08:58:29.846Z,16.17
2019-04-07T09:00:57.402Z,20.37
2019-04-07T09:03:24.737Z,17.40
2019-04-07T09:05:54.447Z,20.10
2019-04-07T09:08:20.948Z,15.33
2019-04-07T09:10:52.752Z,16.90
2019-04-07T09:13:20.800Z,15.90
2019-04-07T09:15:53.369Z,14.00
2019-04-07T09:18:38.924Z,13.22
2019-04-07T09:21:13.331Z,17.95
2019-04-07T09:23:46.974Z,13.05
2019-04-07T09:26:33.300Z,14.20
2019-04-07T09:29:21.006Z,17.83
2019-04-07T09:31:50.790Z,16.60
2019-04-07T09:34:26.073Z,16.20
2019-04-07T09:37:11.895Z,14.45
2019-04-07T09:39:55.435Z,18.25
2019-04-07T09:42:11.939Z,13.20
2019-04-07T09:44:41.110Z,15.55
2019-04-07T09:47:26.862Z,12.95
2019-04-07T09:50:12.186Z,12.25
2019-04-07T09:52:59.044Z,11.35
2019-04-07T09:55:39.743Z,13.32
2019-04-07T09:58:21.400Z,12.85
2019-04-07T10:01:07.990Z,11.60
2019-04-07T10:03:43.029Z,12.03
2019-04-07T10:06:28.060Z,14.18
2019-04-07T10:09:13.336Z,12.00
2019-04-07T10:11:44.910Z,10.70
2019-04-07T10:14:13.940Z,11.95
2019-04-07T10:16:45.781Z,10.15
2019-04-07T10:19:15.388Z,10.72
2019-04-07T10:22:01.469Z,8.63
2019-04-07T10:24:36.982Z,9.25
2019-04-07T10:27:17.524Z,7.72
2019-04-07T10:29:51.484Z,8.55
2019-04-07T10:32:23.033Z,11.57
2019-04-07T10:35:01.047Z,8.43
2019-04-07T10:37:33.474Z,10.07
2019-04-07T10:40:16.716Z,8.70
2019-04-07T10:42:47.293Z,7.70
2019-04-07T10:45:28.481Z,8.05
2019-04-07T10:48:15.650Z,7.75
2019-04-07T10:50:44.525Z,6.97
2019-04-07T10:53:19.557Z,7.90
2019-04-07T10:55:52.173Z,9.83
2019-04-07T10:58:29.716Z,6.77
2019-04-07T11:01:14.610Z,8.40
2019-04-07T11:04:00.973Z,6.37
2019-04-07T11:06:46.597Z,7.80
2019-04-07T11:09:18.172Z,6.07
2019-04-07T11:11:50.034Z,4.70
2019-04-07T11:14:28.301Z,5.10
2019-04-07T11:17:03.633Z,5.77
2019-04-07T11:19:50.075Z,4.58
2019-04-07T11:22:19.837Z,5.83
2019-04-07T11:24:54.610Z,5.85
2019-04-07T11:27:29.474Z,4.10
2019-04-07T11:29:58.562Z,3.93
2019-04-07T11:32:28.234Z,4.53
2019-04-07T11:35:07.654Z,3.60
2019-04-07T11:37:39.321Z,4.47
2019-04-07T11:40:08.661Z,3.50
2019-04-07T11:42:50.677Z,3.63
2019-04-07T11:45:25.925Z,4.60
2019-04-07T11:47:55.045Z,3.17
2019-04-07T11:50:26.707Z,3.97
2019-04-07T11:52:56.215Z,3.80
2019-04-07T11:55:31.511Z,5.50
2019-04-07T11:58:15.944Z,4.50
2019-04-07T12:00:55.104Z,3.80
2019-04-07T12:03:26.039Z,3.23
2019-04-07T12:05:57.123Z,4.03
2019-04-07T12:08:31.160Z,3.77
2019-04-07T12:11:09.702Z,6.33
2019-04-07T12:13:43.966Z,3.87
2019-04-07T12:16:30.400Z,4.57
2019-04-07T12:19:03.265Z,3.53
2019-04-07T12:21:35.408Z,4.97
2019-04-07T12:24:03.434Z,2.90
2019-04-07T12:26:34.651Z,3.70
2019-04-07T12:29:19.306Z,4.57
2019-04-07T12:32:00.708Z,3.13
2019-04-07T12:34:39.817Z,5.73
2019-04-07T12:37:24.649Z,3.20
2019-04-07T12:39:54.313Z,4.50
2019-04-07T12:42:29.960Z,3.50
2019-04-07T12:45:15.551Z,3.77
2019-04-07T12:47:47.460Z,5.20
2019-04-07T12:50:20.708Z,3.17
2019-04-07T12:53:06.858Z,4.30
2019-04-07T12:55:36.150Z,4.63
2019-04-07T12:58:10.795Z,3.63
2019-04-07T13:00:54.393Z,5.30
2019-04-07T13:03:27.030Z,6.87
2019-04-07T13:06:09.507Z,4.90
2019-04-07T13:08:57.190Z,3.37
2019-04-07T13:11:35.237Z,5.63
2019-04-07T13:14:08.725Z,3.50
2019-04-07T13:16:37.020Z,4.03
2019-04-07T13:19:10.274Z,3.93
2019-04-07T13:21:37.163Z,3.43
2019-04-07T13:24:28.377Z,4.83
2019-04-07T13:26:59.895Z,4.13
2019-04-07T13:29:32.331Z,4.20
2019-04-07T13:32:01.753Z,6.33
2019-04-07T13:34:33.894Z,3.90
2019-04-07T13:37:05.593Z,4.20
2019-04-07T13:39:45.216Z,4.33
2019-04-07T13:42:18.398Z,4.70
2019-04-07T13:45:04.291Z,4.20
2019-04-07T13:47:45.958Z,4.37
2019-04-07T13:50:33.318Z,4.13
2019-04-07T13:53:01.744Z,4.13
2019-04-07T13:55:49.935Z,8.73
2019-04-07T13:58:21.842Z,4.33
2019-04-07T14:01:07.431Z,3.50
2019-04-07T14:03:45.153Z,5.07
2019-04-07T14:06:20.523Z,3.63
2019-04-07T14:08:49.532Z,3.90
2019-04-07T14:11:24.999Z,4.20
2019-04-07T14:14:11.128Z,5.53
2019-04-07T14:16:40.147Z,4.43
2019-04-07T14:19:18.907Z,4.40
2019-04-07T14:22:00.020Z,4.07
2019-04-07T14:24:29.518Z,5.17
2019-04-07T14:27:10.582Z,5.20
2019-04-07T14:29:40.599Z,4.33
2019-04-07T14:32:09.927Z,4.30
2019-04-07T14:34:39.116Z,3.93
2019-04-07T14:37:15.243Z,5.13
2019-04-07T14:39:44.457Z,4.20
2019-04-07T14:42:30.538Z,4.00
2019-04-07T14:45:09.419Z,3.57
2019-04-07T14:47:41.532Z,3.40
2019-04-07T14:50:23.221Z,3.77
2019-04-07T14:52:58.158Z,3.77
2019-04-07T14:55:43.136Z,4.13
2019-04-07T14:58:29.144Z,3.93
2019-04-07T15:01:10.722Z,4.37
2019-04-07T15:03:38.133Z,4.43
2019-04-07T15:06:05.470Z,4.17
2019-04-07T15:08:37.194Z,5.60
2019-04-07T15:11:18.345Z,4.20
2019-04-07T15:13:45.594Z,3.63
2019-04-07T15:16:12.791Z,4.07
2019-04-07T15:18:40.095Z,4.97
2019-04-07T15:21:07.964Z,4.00
2019-04-07T15:23:35.518Z,3.80
2019-04-07T15:26:03.336Z,5.40
2019-04-07T15:28:32.794Z,4.83
2019-04-07T15:31:00.932Z,4.20
2019-04-07T15:33:31.454Z,3.90
2019-04-07T15:35:57.724Z,4.10
2019-04-07T15:38:27.161Z,4.10
2019-04-07T15:40:54.674Z,4.03
2019-04-07T15:43:22.330Z,5.47
2019-04-07T15:45:50.175Z,3.87
2019-04-07T15:48:17.492Z,3.93
2019-04-07T15:50:45.443Z,4.27
2019-04-07T15:53:14.974Z,4.30
2019-04-07T15:55:47.559Z,3.80
2019-04-07T15:58:10.780Z,4.03
2019-04-07T16:00:38.780Z,4.23
2019-04-07T16:03:06.199Z,5.00
2019-04-07T16:05:38.366Z,5.93
2019-04-07T16:08:02.413Z,5.53
2019-04-07T16:10:30.177Z,5.43
2019-04-07T16:12:59.329Z,6.47
2019-04-07T16:15:27.204Z,5.73
2019-04-07T16:17:54.518Z,5.90
2019-04-07T16:20:25.084Z,6.90
2019-04-07T16:22:51.892Z,5.93
2019-04-07T16:25:19.650Z,10.57
2019-04-07T16:27:47.630Z,6.13
2019-04-07T16:30:16.476Z,6.97
2019-04-07T16:32:44.963Z,5.83
2019-04-07T16:35:15.593Z,6.13
2019-04-07T16:37:41.727Z,6.07
2019-04-07T16:40:11.465Z,6.30
2019-04-07T16:42:38.072Z,6.70
2019-04-07T16:45:06.079Z,5.40
2019-04-07T16:47:35.594Z,7.03
2019-04-07T16:50:03.151Z,6.83
2019-04-07T16:52:32.921Z,5.63
2019-04-07T16:54:59.647Z,5.67
2019-04-07T16:57:29.892Z,8.03
2019-04-07T16:59:56.344Z,6.07
2019-04-07T17:02:30.602Z,5.13
2019-04-07T17:04:57.871Z,4.90
2019-04-07T17:07:25.097Z,6.17
2019-04-07T17:09:54.986Z,5.70
2019-04-07T17:12:21.534Z,8.73
2019-04-07T17:14:49.175Z,5.20
2019-04-07T17:17:20.196Z,5.70
2019-04-07T17:19:45.768Z,4.93
2019-04-07T17:22:15.711Z,4.73
2019-04-07T17:24:42.696Z,6.07
2019-04-07T17:27:11.784Z,6.30
2019-04-07T17:29:39.542Z,6.73
2019-04-07T17:32:08.116Z,8.43
2019-04-07T17:34:35.523Z,8.10
2019-04-07T17:37:02.966Z,5.67
2019-04-07T17:39:38.354Z,5.70
2019-04-07T17:42:05.917Z,7.20
2019-04-07T17:44:35.161Z,8.77
2019-04-07T17:47:04.180Z,7.87
2019-04-07T17:49:50.366Z,9.07
2019-04-07T17:52:36.017Z,10.43
2019-04-07T17:55:21.898Z,7.40
2019-04-07T17:58:10.151Z,6.60
2019-04-07T18:00:47.718Z,7.43
2019-04-07T18:03:21.631Z,9.17
2019-04-07T18:05:50.828Z,8.27
2019-04-07T18:08:43.500Z,9.57
2019-04-07T18:11:10.608Z,8.03
2019-04-07T18:13:49.485Z,7.83
2019-04-07T18:16:31.802Z,7.00
2019-04-07T18:19:09.814Z,7.23
2019-04-07T18:21:55.397Z,11.03
2019-04-07T18:24:30.931Z,9.20
2019-04-07T18:27:15.558Z,10.33
2019-04-07T18:29:43.422Z,10.63
2019-04-07T18:32:28.897Z,8.47
2019-04-07T18:35:01.184Z,9.23
2019-04-07T18:37:42.733Z,11.07
2019-04-07T18:40:26.323Z,9.43
2019-04-07T18:42:55.662Z,8.60
2019-04-07T18:45:27.534Z,8.90
2019-04-07T18:47:59.382Z,12.33
2019-04-07T18:50:30.978Z,11.50
2019-04-07T18:53:15.155Z,9.97
2019-04-07T18:55:47.101Z,13.97
2019-04-07T18:58:25.656Z,9.83
2019-04-07T19:01:11.662Z,8.87
2019-04-07T19:03:53.622Z,11.47
2019-04-07T19:06:22.813Z,12.23
2019-04-07T19:09:00.790Z,9.83
2019-04-07T19:11:41.649Z,10.30
2019-04-07T19:14:34.310Z,11.33
2019-04-07T19:16:50.265Z,10.47
2019-04-07T19:19:30.209Z,11.53
2019-04-07T19:22:04.206Z,11.77
2019-04-07T19:24:49.483Z,9.10
2019-04-07T19:27:37.438Z,9.80
2019-04-07T19:30:22.925Z,13.67
2019-04-07T19:33:09.322Z,8.80
2019-04-07T19:35:40.918Z,11.90
2019-04-07T19:38:09.719Z,12.03
2019-04-07T19:40:51.115Z,11.33
2019-04-07T19:43:33.090Z,11.63
2019-04-07T19:46:02.793Z,12.70
2019-04-07T19:48:32.114Z,11.97
2019-04-07T19:51:01.219Z,13.83
2019-04-07T19:53:44.193Z,10.50
2019-04-07T19:56:18.940Z,12.83
2019-04-07T19:58:59.939Z,10.90
2019-04-07T20:01:29.295Z,13.03
2019-04-07T20:03:58.259Z,10.90
2019-04-07T20:06:44.103Z,11.13
2019-04-07T20:09:22.219Z,11.43
2019-04-07T20:11:54.816Z,12.57
2019-04-07T20:14:49.242Z,13.23
2019-04-07T20:17:18.902Z,12.40
2019-04-07T20:19:57.848Z,14.27
2019-04-07T20:22:43.629Z,15.80
2019-04-07T20:25:16.003Z,12.17
2019-04-07T20:27:59.431Z,13.40
2019-04-07T20:30:31.449Z,12.20
2019-04-07T20:33:04.144Z,14.10
2019-04-07T20:35:43.329Z,12.67
2019-04-07T20:38:29.823Z,13.73
2019-04-07T20:41:01.655Z,16.00
2019-04-07T20:43:33.254Z,13.93
2019-04-07T20:46:14.145Z,15.80
2019-04-07T20:48:46.319Z,12.80
2019-04-07T20:51:17.663Z,12.80
2019-04-07T20:54:03.878Z,13.70
2019-04-07T20:56:34.032Z,17.60
2019-04-07T20:59:09.849Z,14.13
2019-04-07T21:02:03.392Z,15.63
2019-04-07T21:04:26.298Z,13.70
2019-04-07T21:07:02.040Z,13.97
2019-04-07T21:09:37.326Z,12.63
2019-04-07T21:12:15.984Z,13.27
2019-04-07T21:14:49.391Z,15.37
2019-04-07T21:17:31.598Z,14.33
2019-04-07T21:20:09.694Z,14.27
2019-04-07T21:22:45.140Z,17.33
2019-04-07T21:25:23.747Z,16.43
2019-04-07T21:27:53.332Z,16.07
2019-04-07T21:30:24.934Z,14.77
2019-04-07T21:33:06.063Z,19.53
2019-04-07T21:35:36.421Z,16.27
2019-04-07T21:38:11.538Z,14.83
2019-04-07T21:40:57.718Z,15.07
2019-04-07T21:43:33.962Z,16.50
2019-04-07T21:46:03.174Z,16.70
2019-04-07T21:48:41.301Z,16.07
2019-04-07T21:51:26.884Z,17.27
2019-04-07T21:54:00.004Z,15.53
2019-04-07T21:56:44.209Z,18.50
2019-04-07T21:59:20.077Z,15.80
2019-04-07T22:01:55.068Z,16.43
2019-04-07T22:04:40.159Z,20.27
2019-04-07T22:07:12.118Z,16.57
2019-04-07T22:09:47.078Z,17.23
2019-04-07T22:12:12.893Z,18.47
2019-04-07T22:14:42.461Z,16.07
2019-04-07T22:17:09.478Z,21.00
2019-04-07T22:19:36.858Z,15.93
2019-04-07T22:22:04.602Z,15.17
2019-04-07T22:24:34.712Z,17.23
2019-04-07T22:27:02.333Z,19.50
2019-04-07T22:29:32.756Z,21.77
2019-04-07T22:31:59.808Z,19.27
2019-04-07T22:34:29.824Z,16.17
2019-04-07T22:36:56.259Z,20.40
2019-04-07T22:39:27.506Z,18.30
2019-04-07T22:42:00.237Z,19.47
2019-04-07T22:44:27.821Z,21.77
2019-04-07T22:46:55.070Z,17.60
2019-04-07T22:49:23.369Z,16.57
2019-04-07T22:51:51.098Z,19.07
2019-04-07T22:54:19.685Z,15.77
2019-04-07T22:56:46.916Z,17.17
2019-04-07T22:59:14.130Z,19.57
2019-04-07T23:01:41.382Z,18.50
2019-04-07T23:04:08.602Z,19.20
2019-04-07T23:06:36.249Z,17.40
2019-04-07T23:09:05.737Z,18.87
2019-04-07T23:11:33.065Z,21.13
2019-04-07T23:14:01.018Z,18.97
2019-04-07T23:16:28.407Z,18.23
2019-04-07T23:18:55.642Z,17.60
2019-04-07T23:21:23.480Z,18.33
2019-04-07T23:23:51.410Z,19.97
2019-04-07T23:26:20.116Z,18.27
2019-04-07T23:28:48.541Z,21.13
2019-04-07T23:31:16.454Z,22.90
2019-04-07T23:33:43.853Z,17.37
2019-04-07T23:36:11.570Z,18.63
2019-04-07T23:38:39.089Z,18.30
2019-04-07T23:41:06.556Z,24.20
2019-04-07T23:43:34.046Z,19.17
2019-04-07T23:46:02.088Z,20.07
2019-04-07T23:48:30.611Z,20.30
2019-04-07T23:50:58.242Z,19.10
2019-04-07T23:53:44.955Z,18.30
2019-04-07T23:56:12.294Z,17.13
2019-04-07T23:58:39.505Z,17.80
